Alts de San Pedro, Puerto Rico
Current Conditions -  °F | °C
As of 5:53 PM on Sunday 23 Nov 2014 (Local Time) from TJNR Reporting Station
Broken Clouds Broken Clouds  
Wind Chill: 81°   Ceiling: 4600
Heat Index: 85°   Visibility: 10mi
Dew Point: 71°   Wind: 12mph
Humidity: 72%   Direction: 100°E
Pressure: 30.01"   Gusts: 17mph
Location:  18.3304°N, 65.6573°W
Report Text: TJNR 232153Z AUTO 10010G15KT 10SM BKN046 27/22 A3001 RMK AO2 SLP162 T02720217 $
Loading
Personal Weather Stations






























Interactive Weather Map New forecast layout! Learn more

10-Day Weather Forecast

Advertisements
Track Severe Weather on mobile